Time;durP1;ratioP1;P1;durP2;ratioP2;P2;SDS_P1;SDS_P2;PMS_P1;PMS_P2;Temp;Humidity;BMP_temperature;BMP_pressure;BME280_temperature;BME280_humidity;BME280_pressure;Samples;Min_cycle;Max_cycle;Signal;HPM_P1;HPM_P2
2022/01/02 00:00:22;;;;;;;7.32;3.53;;;11.60;99.90;;;;;;6218508;23;20414;-84
2022/01/02 00:02:57;;;;;;;8.13;3.67;;;11.60;99.90;;;;;;6193747;23;20064;-85
2022/01/02 00:05:29;;;;;;;9.93;4.97;;;11.50;99.90;;;;;;6194091;23;20090;-85
2022/01/02 00:08:09;;;;;;;8.68;3.22;;;11.50;99.90;;;;;;6194317;23;20066;-85
2022/01/02 00:10:42;;;;;;;6.63;3.28;;;11.50;99.90;;;;;;6192793;23;20012;-85
2022/01/02 00:13:14;;;;;;;7.15;3.70;;;11.50;99.90;;;;;;6219676;23;20028;-84
2022/01/02 00:15:49;;;;;;;9.87;4.40;;;11.50;99.90;;;;;;6194898;23;20035;-85
2022/01/02 00:18:18;;;;;;;8.13;3.50;;;11.40;99.90;;;;;;6220373;23;20012;-85
2022/01/02 00:20:49;;;;;;;11.48;3.88;;;11.40;99.90;;;;;;6194025;23;20008;-85
2022/01/02 00:23:21;;;;;;;7.38;3.40;;;11.40;99.90;;;;;;6194896;23;20012;-85
2022/01/02 00:25:54;;;;;;;10.52;3.80;;;11.40;99.90;;;;;;6193442;23;20012;-85
2022/01/02 00:28:20;;;;;;;7.35;4.00;;;11.40;99.90;;;;;;6194769;23;20012;-85
2022/01/02 00:30:48;;;;;;;8.23;3.60;;;11.40;99.90;;;;;;6194295;23;20043;-85
2022/01/02 00:33:19;;;;;;;12.50;4.40;;;11.40;99.90;;;;;;6219968;23;20074;-85
2022/01/02 00:35:45;;;;;;;9.55;4.00;;;11.40;99.90;;;;;;6194767;23;20004;-85
2022/01/02 00:38:21;;;;;;;7.15;3.47;;;11.40;99.90;;;;;;6218804;23;20102;-85
2022/01/02 00:40:50;;;;;;;10.05;4.07;;;11.40;99.90;;;;;;6219123;23;20013;-85
2022/01/02 00:43:22;;;;;;;13.27;4.50;;;11.40;99.90;;;;;;6219408;23;20014;-85
2022/01/02 00:45:52;;;;;;;;;;;11.30;99.90;;;;;;6193997;23;20019;-85
2022/01/02 00:48:24;;;;;;;7.43;3.33;;;11.30;99.90;;;;;;6195095;23;19947;-85
2022/01/02 00:50:55;;;;;;;8.07;3.92;;;11.40;99.90;;;;;;6219561;23;20425;-85
2022/01/02 00:53:25;;;;;;;8.70;3.65;;;11.30;99.90;;;;;;6194909;23;20035;-85
2022/01/02 00:55:57;;;;;;;8.05;3.15;;;11.30;99.90;;;;;;6218106;23;20016;-84
2022/01/02 00:58:34;;;;;;;13.37;4.20;;;11.40;99.90;;;;;;6194512;23;20529;-85
2022/01/02 01:01:01;;;;;;;8.70;3.67;;;11.40;99.90;;;;;;6194420;22;20012;-85
2022/01/02 01:03:31;;;;;;;7.97;3.22;;;11.40;99.90;;;;;;6193649;23;20020;-85
2022/01/02 01:06:00;;;;;;;12.80;4.25;;;11.40;99.90;;;;;;6218820;23;20040;-85
2022/01/02 01:08:30;;;;;;;10.02;3.83;;;11.40;99.90;;;;;;6193840;23;20019;-85
2022/01/02 01:10:59;;;;;;;8.50;4.20;;;11.40;99.90;;;;;;6193057;23;20012;-85
2022/01/02 01:13:27;;;;;;;10.45;3.83;;;11.40;99.90;;;;;;6193899;23;20012;-84
2022/01/02 01:15:53;;;;;;;9.98;3.95;;;11.30;99.90;;;;;;6195785;23;20415;-85
2022/01/02 01:18:19;;;;;;;9.07;4.40;;;11.30;99.90;;;;;;6195168;23;20012;-85
2022/01/02 01:20:45;;;;;;;7.30;4.15;;;11.30;99.90;;;;;;6194739;23;20034;-85
2022/01/02 01:23:16;;;;;;;10.68;4.47;;;11.30;99.90;;;;;;6220589;23;20016;-85
2022/01/02 01:25:45;;;;;;;12.88;4.25;;;11.30;99.90;;;;;;6194112;23;20031;-85
2022/01/02 01:28:12;;;;;;;9.25;4.00;;;11.20;99.90;;;;;;6193589;23;20446;-85
2022/01/02 01:30:38;;;;;;;10.95;4.28;;;11.20;99.90;;;;;;6218968;23;20458;-85
2022/01/02 01:33:04;;;;;;;9.25;4.15;;;11.20;99.90;;;;;;6193939;23;20451;-85
2022/01/02 01:35:30;;;;;;;15.32;5.28;;;11.30;99.90;;;;;;6192004;23;20092;-85
2022/01/02 01:37:56;;;;;;;10.77;4.93;;;11.30;99.90;;;;;;6218567;23;20016;-85
2022/01/02 01:40:22;;;;;;;8.35;4.25;;;11.30;99.90;;;;;;6192177;23;20015;-84
2022/01/02 01:43:01;;;;;;;11.95;4.50;;;11.30;99.90;;;;;;6217968;23;20115;-85
2022/01/02 01:47:58;;;;;;;10.75;4.60;;;11.30;99.90;;;;;;6236645;23;20030;-83
2022/01/02 01:50:40;;;;;;;9.68;4.63;;;11.30;99.90;;;;;;6225693;23;20020;-85
2022/01/02 01:53:07;;;;;;;13.60;4.00;;;11.30;99.90;;;;;;6193231;23;20049;-85
2022/01/02 01:55:35;;;;;;;11.18;4.15;;;11.30;99.90;;;;;;6237501;23;20246;-84
2022/01/02 01:58:03;;;;;;;9.48;4.45;;;11.30;99.90;;;;;;6218989;23;20051;-84
2022/01/02 02:00:35;;;;;;;15.98;4.78;;;11.30;99.90;;;;;;6209016;23;20040;-86
2022/01/02 02:03:02;;;;;;;13.43;5.15;;;11.30;99.90;;;;;;6165246;23;20036;-86
2022/01/02 02:05:33;;;;;;;8.77;3.58;;;11.30;99.90;;;;;;6157640;23;20048;-86
2022/01/02 02:08:00;;;;;;;12.18;4.65;;;11.40;99.90;;;;;;6157493;23;20032;-86
2022/01/02 02:10:39;;;;;;;12.35;4.80;;;11.40;99.90;;;;;;6181105;23;20020;-86
2022/01/02 02:13:06;;;;;;;10.25;4.13;;;11.40;99.90;;;;;;6157407;23;20064;-86
2022/01/02 02:15:32;;;;;;;10.73;4.30;;;11.40;99.90;;;;;;6182635;23;20033;-86
2022/01/02 02:17:57;;;;;;;12.48;4.20;;;11.40;99.90;;;;;;6182230;23;20017;-86
2022/01/02 02:20:29;;;;;;;8.50;4.43;;;11.40;99.90;;;;;;6156904;23;20056;-86
2022/01/02 02:22:56;;;;;;;13.25;5.00;;;11.40;99.90;;;;;;6157593;23;20009;-86
2022/01/02 02:25:26;;;;;;;12.50;3.95;;;11.40;99.90;;;;;;6155162;23;20013;-86
2022/01/02 02:27:53;;;;;;;14.52;4.38;;;11.40;99.90;;;;;;6182022;23;20013;-86
2022/01/02 02:30:20;;;;;;;11.73;4.43;;;11.40;99.90;;;;;;6157275;23;20072;-87
2022/01/02 02:32:46;;;;;;;10.25;4.78;;;11.40;99.90;;;;;;6182776;23;20348;-86
2022/01/02 02:35:13;;;;;;;10.55;3.85;;;11.40;99.90;;;;;;6182239;23;20088;-86
2022/01/02 02:37:45;;;;;;;10.18;4.25;;;11.40;99.90;;;;;;6157177;23;20103;-86
2022/01/02 02:40:12;;;;;;;8.90;4.35;;;11.40;99.90;;;;;;6155911;23;20017;-86
2022/01/02 02:42:47;;;;;;;11.65;4.10;;;11.40;99.90;;;;;;6182699;23;20344;-86
2022/01/02 02:51:20;;;;;;;8.68;4.18;;;11.40;99.90;;;;;;6182106;23;20538;-86
2022/01/02 02:53:48;;;;;;;9.43;3.30;;;11.40;99.90;;;;;;6181823;23;20347;-86
2022/01/02 02:56:18;;;;;;;10.77;4.38;;;11.40;99.90;;;;;;6183454;23;20027;-86
2022/01/02 02:58:45;;;;;;;12.07;4.05;;;11.40;99.90;;;;;;6182453;23;20079;-86
2022/01/02 03:01:13;;;;;;;11.70;3.67;;;11.40;99.90;;;;;;6183892;23;20013;-86
2022/01/02 03:03:40;;;;;;;11.32;3.85;;;11.40;99.90;;;;;;6184416;23;20414;-86
2022/01/02 03:06:06;;;;;;;11.98;4.47;;;11.40;99.90;;;;;;6158959;23;20056;-86
2022/01/02 03:08:33;;;;;;;8.10;3.97;;;11.40;99.90;;;;;;6184472;23;20020;-86
2022/01/02 03:10:59;;;;;;;7.78;3.47;;;11.40;99.90;;;;;;6183384;23;20048;-86
2022/01/02 03:13:25;;;;;;;10.52;3.78;;;11.30;99.90;;;;;;6158738;23;20059;-86
2022/01/02 03:15:51;;;;;;;12.80;4.05;;;11.30;99.90;;;;;;6184418;23;20013;-86
2022/01/02 03:18:16;;;;;;;10.93;4.15;;;11.40;99.90;;;;;;6184736;23;20351;-86
2022/01/02 03:21:05;;;;;;;10.45;3.65;;;11.40;99.90;;;;;;6183848;23;20478;-86
2022/01/02 03:23:48;;;;;;;9.70;3.67;;;11.40;99.90;;;;;;6183916;23;20013;-86
2022/01/02 03:26:13;;;;;;;;;;;11.40;99.90;;;;;;6158662;23;20052;-86
2022/01/02 03:28:39;;;;;;;10.30;3.85;;;11.40;99.90;;;;;;6158557;23;19916;-86
2022/01/02 03:31:05;;;;;;;12.50;4.55;;;11.40;99.90;;;;;;6181954;23;20051;-86
2022/01/02 03:33:30;;;;;;;12.02;3.70;;;11.50;99.90;;;;;;6158306;23;20328;-87
2022/01/02 03:35:56;;;;;;;8.73;3.30;;;11.50;99.90;;;;;;6183230;23;20017;-86
2022/01/02 03:38:29;;;;;;;10.15;3.38;;;11.50;99.90;;;;;;6183838;23;20017;-86
2022/01/02 03:40:55;;;;;;;13.95;4.10;;;11.50;99.90;;;;;;6157284;23;20072;-85
2022/01/02 03:43:21;;;;;;;12.13;3.60;;;11.50;99.90;;;;;;6157649;23;20100;-86
2022/01/02 03:45:47;;;;;;;13.88;3.17;;;11.60;99.90;;;;;;6182927;23;20044;-86
2022/01/02 03:48:12;;;;;;;9.63;3.25;;;11.60;99.90;;;;;;6185633;23;20017;-86
2022/01/02 03:50:38;;;;;;;9.98;3.40;;;11.60;99.90;;;;;;6182346;23;20088;-86
2022/01/02 03:53:05;;;;;;;13.15;3.85;;;11.60;99.90;;;;;;6158982;23;20021;-86
2022/01/02 03:55:30;;;;;;;15.82;3.88;;;11.60;99.90;;;;;;6183107;23;20091;-86
2022/01/02 03:57:56;;;;;;;12.30;3.38;;;11.60;99.90;;;;;;6158621;23;20040;-86
2022/01/02 04:00:34;;;;;;;13.95;3.53;;;11.60;99.90;;;;;;6158664;23;20048;-86
2022/01/02 04:03:00;;;;;;;13.57;3.70;;;11.60;99.90;;;;;;6157461;23;20486;-86
2022/01/02 04:05:25;;;;;;;9.88;3.55;;;11.60;99.90;;;;;;6158032;23;20017;-86
2022/01/02 04:07:52;;;;;;;8.38;3.22;;;11.60;99.90;;;;;;6158064;23;20012;-86
2022/01/02 04:10:26;;;;;;;10.85;3.40;;;11.60;99.90;;;;;;6182246;23;20017;-86
2022/01/02 04:12:52;;;;;;;10.57;2.80;;;11.60;99.90;;;;;;6158383;23;20024;-86
2022/01/02 04:15:19;;;;;;;12.77;3.75;;;11.60;99.90;;;;;;6184625;23;20347;-87
2022/01/02 04:17:45;;;;;;;11.50;3.45;;;11.60;99.90;;;;;;6134271;23;20017;-86
2022/01/02 04:20:14;;;;;;;9.80;3.15;;;11.70;99.90;;;;;;6133688;23;20008;-86
2022/01/02 04:22:41;;;;;;;12.05;2.80;;;11.70;99.90;;;;;;6157888;23;20156;-86
2022/01/02 04:25:07;;;;;;;9.25;2.83;;;11.70;99.90;;;;;;6180938;23;20284;-86
2022/01/02 04:27:33;;;;;;;11.68;3.70;;;11.70;99.90;;;;;;6157826;23;20104;-86
2022/01/02 04:29:59;;;;;;;10.80;3.15;;;11.70;99.90;;;;;;6157405;23;20071;-86
2022/01/02 04:32:25;;;;;;;7.38;3.17;;;11.70;99.90;;;;;;6183571;23;20027;-86
2022/01/02 04:34:50;;;;;;;9.82;2.92;;;11.80;99.90;;;;;;6158736;23;20021;-86
2022/01/02 04:37:16;;;;;;;12.55;2.85;;;11.80;99.90;;;;;;6158724;23;20289;-86
2022/01/02 04:39:43;;;;;;;12.60;2.92;;;11.80;99.90;;;;;;6181901;23;20092;-86
2022/01/02 04:45:02;;;;;;;12.13;2.67;;;11.90;99.90;;;;;;6172311;23;20017;-85
2022/01/02 04:47:27;;;;;;;9.80;2.40;;;12.00;99.90;;;;;;6182843;23;20016;-86
2022/01/02 04:49:53;;;;;;;9.48;2.22;;;12.00;99.90;;;;;;6158054;23;20017;-87
2022/01/02 04:52:19;;;;;;;7.35;3.15;;;12.00;99.90;;;;;;6158441;23;20127;-86
2022/01/02 04:54:52;;;;;;;8.68;2.20;;;12.00;99.90;;;;;;6181691;23;20044;-86
2022/01/02 04:57:18;;;;;;;9.05;2.55;;;12.10;99.90;;;;;;6183309;23;20072;-87
2022/01/02 04:59:44;;;;;;;11.55;3.00;;;12.10;99.90;;;;;;6158668;23;20013;-86
2022/01/02 05:02:15;;;;;;;9.35;2.30;;;12.10;99.90;;;;;;6158146;23;20076;-86
2022/01/02 05:04:44;;;;;;;9.23;2.20;;;12.20;99.90;;;;;;6158309;23;20031;-87
2022/01/02 05:07:11;;;;;;;10.93;2.28;;;12.20;99.90;;;;;;6182283;23;20092;-87
2022/01/02 05:09:37;;;;;;;9.25;2.65;;;12.30;99.90;;;;;;6181738;23;20093;-86
2022/01/02 05:12:03;;;;;;;7.75;1.80;;;12.30;99.90;;;;;;6182169;23;20036;-86
2022/01/02 05:14:28;;;;;;;8.25;2.50;;;12.30;99.90;;;;;;6158094;23;20455;-86
2022/01/02 05:16:54;;;;;;;10.93;2.85;;;12.30;99.90;;;;;;6180898;23;20273;-86
2022/01/02 05:19:20;;;;;;;9.50;2.78;;;12.20;99.90;;;;;;6157505;23;20020;-86
2022/01/02 05:21:45;;;;;;;8.52;1.92;;;12.30;99.90;;;;;;6182568;23;20347;-86
2022/01/02 05:24:13;;;;;;;9.65;2.35;;;12.30;99.90;;;;;;6156363;23;20017;-86
2022/01/02 05:26:39;;;;;;;10.02;3.03;;;12.40;99.90;;;;;;6157830;23;20377;-87
2022/01/02 05:29:09;;;;;;;9.45;2.15;;;12.40;99.90;;;;;;6182412;23;20017;-86
2022/01/02 05:31:44;;;;;;;8.15;2.00;;;12.40;99.90;;;;;;6157417;23;20013;-86
2022/01/02 05:34:10;;;;;;;10.68;2.47;;;12.40;99.90;;;;;;6156862;23;20050;-86
2022/01/02 05:36:36;;;;;;;10.05;2.13;;;12.40;99.90;;;;;;6157820;23;20013;-86
2022/01/02 05:39:06;;;;;;;10.35;2.15;;;12.40;99.90;;;;;;6180463;23;20005;-86
2022/01/02 05:41:33;;;;;;;9.70;2.47;;;12.40;99.90;;;;;;6132595;23;20096;-86
2022/01/02 05:43:59;;;;;;;5.38;1.98;;;12.40;99.90;;;;;;6156928;23;20426;-86
2022/01/02 05:46:25;;;;;;;7.18;2.25;;;12.40;99.90;;;;;;6157638;23;20048;-87
2022/01/02 05:48:52;;;;;;;7.10;1.90;;;12.40;99.90;;;;;;6157098;23;20111;-86
2022/01/02 05:51:18;;;;;;;7.93;1.95;;;12.50;99.90;;;;;;6182037;23;20063;-86
2022/01/02 05:53:43;;;;;;;10.10;2.10;;;12.50;99.90;;;;;;6180522;23;20053;-86
2022/01/02 05:56:14;;;;;;;5.65;2.20;;;12.40;99.90;;;;;;6156448;23;20017;-86
2022/01/02 05:58:40;;;;;;;7.03;1.90;;;12.40;99.90;;;;;;6181952;23;20021;-86
2022/01/02 06:01:06;;;;;;;7.00;1.73;;;12.30;99.90;;;;;;6180671;23;20009;-86
2022/01/02 06:03:31;;;;;;;8.40;2.50;;;12.40;99.90;;;;;;6156908;23;20321;-86
2022/01/02 06:05:57;;;;;;;10.95;2.00;;;12.40;99.90;;;;;;6181439;23;20020;-86
2022/01/02 06:08:32;;;;;;;4.97;1.70;;;12.30;99.90;;;;;;6155885;23;20017;-86
2022/01/02 06:10:58;;;;;;;3.97;1.30;;;12.30;99.90;;;;;;6181678;23;20005;-86
2022/01/02 06:13:24;;;;;;;7.50;2.13;;;12.30;99.90;;;;;;6181633;23;20071;-86
2022/01/02 06:15:50;;;;;;;4.78;1.35;;;12.40;99.90;;;;;;6181944;23;20439;-87
2022/01/02 06:18:15;;;;;;;10.20;1.80;;;12.40;99.90;;;;;;6182875;23;20017;-86
2022/01/02 06:20:41;;;;;;;4.47;1.30;;;12.40;99.90;;;;;;6156726;23;20068;-86
2022/01/02 06:23:07;;;;;;;9.30;2.03;;;12.40;99.90;;;;;;6155848;23;20013;-86
2022/01/02 06:25:33;;;;;;;7.28;2.20;;;12.40;99.90;;;;;;6156360;23;20019;-86
2022/01/02 06:28:00;;;;;;;9.35;2.50;;;12.40;99.90;;;;;;6156983;23;20040;-86
2022/01/02 06:30:26;;;;;;;7.85;1.75;;;12.40;99.90;;;;;;6156981;23;20017;-86
2022/01/02 06:32:55;;;;;;;6.10;1.58;;;12.40;99.90;;;;;;6182390;23;20443;-86
2022/01/02 06:35:30;;;;;;;7.45;1.40;;;12.40;99.90;;;;;;6182018;23;20043;-86
2022/01/02 06:37:56;;;;;;;7.60;1.38;;;12.40;99.90;;;;;;6132652;23;20010;-86
2022/01/02 06:40:23;;;;;;;8.13;2.30;;;12.40;99.90;;;;;;6155907;23;20013;-86
2022/01/02 06:42:49;;;;;;;6.35;1.95;;;12.40;99.90;;;;;;6182091;23;20005;-86
2022/01/02 06:45:15;;;;;;;5.53;1.85;;;12.40;99.90;;;;;;6156238;23;20051;-86
2022/01/02 06:47:41;;;;;;;7.03;1.67;;;12.30;99.90;;;;;;6156819;23;20048;-87
2022/01/02 06:50:07;;;;;;;3.75;1.65;;;12.40;99.90;;;;;;6156708;23;20293;-87
2022/01/02 06:52:33;;;;;;;9.85;1.85;;;12.40;99.90;;;;;;6156771;23;20068;-86
2022/01/02 06:54:58;;;;;;;9.05;2.10;;;12.30;99.90;;;;;;6180240;23;20013;-86
2022/01/02 06:57:24;;;;;;;6.55;1.88;;;12.40;99.90;;;;;;6181647;23;20047;-87
2022/01/02 06:59:51;;;;;;;6.60;2.40;;;12.30;99.90;;;;;;6182205;23;20017;-86
2022/01/02 07:02:17;;;;;;;5.18;1.50;;;12.20;99.90;;;;;;6156717;23;20024;-87
2022/01/02 07:04:43;;;;;;;5.05;1.60;;;12.20;99.90;;;;;;6155704;23;20132;-86
2022/01/02 07:07:09;;;;;;;4.80;1.65;;;12.30;99.90;;;;;;6181037;23;20017;-87
2022/01/02 07:09:35;;;;;;;7.43;2.22;;;12.20;99.90;;;;;;6180437;23;20016;-86
2022/01/02 07:12:01;;;;;;;6.25;2.10;;;12.20;99.90;;;;;;6157589;23;20021;-86
2022/01/02 07:14:27;;;;;;;7.80;2.05;;;12.20;99.90;;;;;;6157145;23;20027;-86
2022/01/02 07:17:00;;;;;;;5.72;2.10;;;12.10;99.90;;;;;;6180950;23;20006;-86
2022/01/02 07:19:25;;;;;;;;;;;12.10;99.90;;;;;;6180907;23;20020;-86
2022/01/02 07:21:52;;;;;;;7.45;2.08;;;12.10;99.90;;;;;;6181509;23;19916;-86
2022/01/02 07:24:18;;;;;;;3.42;1.77;;;12.10;99.90;;;;;;6153909;23;20009;-86
2022/01/02 07:26:44;;;;;;;5.97;2.05;;;12.10;99.90;;;;;;6182578;23;20087;-87
2022/01/02 07:29:10;;;;;;;5.32;1.80;;;12.20;99.90;;;;;;6180346;23;20075;-86
2022/01/02 07:31:36;;;;;;;8.93;2.33;;;12.20;99.90;;;;;;6178803;23;20059;-86
2022/01/02 07:34:03;;;;;;;10.60;2.30;;;12.20;99.90;;;;;;6155435;23;20344;-87
2022/01/02 07:36:28;;;;;;;5.82;2.10;;;12.20;99.90;;;;;;6180106;23;20009;-86
2022/01/02 07:38:54;;;;;;;7.13;2.38;;;12.10;99.90;;;;;;6179091;23;20076;-86
2022/01/02 07:41:20;;;;;;;7.28;2.03;;;12.10;99.90;;;;;;6181135;23;20080;-86
2022/01/02 07:43:45;;;;;;;4.65;1.95;;;12.20;99.90;;;;;;6180884;23;20005;-86
2022/01/02 07:46:11;;;;;;;8.20;1.80;;;12.10;99.90;;;;;;6178427;23;20017;-86
2022/01/02 07:48:37;;;;;;;6.53;2.00;;;12.10;99.90;;;;;;6182707;23;20017;-86
2022/01/02 07:51:02;;;;;;;5.95;2.15;;;12.10;99.90;;;;;;6157743;23;20009;-86
2022/01/02 07:53:28;;;;;;;6.25;1.95;;;12.00;99.90;;;;;;6158376;23;20071;-86
2022/01/02 07:55:54;;;;;;;4.15;1.88;;;12.00;99.90;;;;;;6182419;23;20416;-86
2022/01/02 07:58:19;;;;;;;6.15;2.15;;;12.00;99.90;;;;;;6183112;23;20750;-86
2022/01/02 08:00:45;;;;;;;4.75;1.70;;;12.00;99.90;;;;;;6181813;23;20012;-86
2022/01/02 08:03:10;;;;;;;7.28;1.92;;;12.00;99.90;;;;;;6182255;23;20024;-86
2022/01/02 08:05:36;;;;;;;6.65;2.38;;;12.00;99.90;;;;;;6182580;23;20442;-86
2022/01/02 08:08:02;;;;;;;8.02;2.00;;;12.00;99.90;;;;;;6158085;23;20023;-86
2022/01/02 08:10:28;;;;;;;5.05;1.98;;;12.00;99.90;;;;;;6156953;23;20013;-86
2022/01/02 08:12:54;;;;;;;8.07;2.45;;;12.00;99.90;;;;;;6182953;23;20028;-86
2022/01/02 08:15:21;;;;;;;5.82;2.35;;;12.00;99.90;;;;;;6181753;23;20012;-87
2022/01/02 08:17:47;;;;;;;8.88;2.25;;;12.00;99.90;;;;;;6183477;23;20040;-86
2022/01/02 08:20:13;;;;;;;7.47;2.28;;;12.00;99.90;;;;;;6155337;23;20134;-86
2022/01/02 08:22:39;;;;;;;6.65;2.10;;;12.00;99.90;;;;;;6156239;23;20009;-86
2022/01/02 08:25:06;;;;;;;5.88;1.90;;;11.90;99.90;;;;;;6157897;23;20036;-86
2022/01/02 08:27:31;;;;;;;5.68;2.53;;;11.80;99.90;;;;;;6180934;23;20025;-86
2022/01/02 08:29:57;;;;;;;7.72;2.22;;;11.80;99.90;;;;;;6153074;23;20021;-86
2022/01/02 08:32:23;;;;;;;5.40;2.33;;;11.80;99.90;;;;;;6156946;23;20017;-86
2022/01/02 08:34:48;;;;;;;9.20;2.40;;;11.70;99.90;;;;;;6156612;23;20013;-86
2022/01/02 08:37:15;;;;;;;7.47;2.03;;;11.70;99.90;;;;;;6156832;23;20013;-86
2022/01/02 08:39:44;;;;;;;7.53;1.83;;;11.70;99.90;;;;;;6182092;23;20521;-86
2022/01/02 08:42:11;;;;;;;4.55;1.77;;;11.70;99.90;;;;;;6183699;23;20084;-85
2022/01/02 08:44:39;;;;;;;4.75;1.73;;;11.80;99.90;;;;;;6154883;23;20458;-86
2022/01/02 08:47:06;;;;;;;9.73;2.75;;;11.90;99.90;;;;;;6157832;23;20017;-86
2022/01/02 08:49:32;;;;;;;7.97;2.10;;;12.00;99.90;;;;;;6182237;23;20463;-86
2022/01/02 08:51:58;;;;;;;6.55;2.08;;;12.00;99.90;;;;;;6182799;23;20074;-86
2022/01/02 08:54:23;;;;;;;5.13;1.65;;;12.10;99.90;;;;;;6155741;23;20013;-86
2022/01/02 08:56:49;;;;;;;6.95;2.67;;;12.10;99.90;;;;;;6181810;23;20388;-86
2022/01/02 08:59:15;;;;;;;4.88;1.90;;;12.20;99.90;;;;;;6157334;23;20435;-85
2022/01/02 09:01:40;;;;;;;6.97;2.33;;;12.30;99.90;;;;;;6180409;23;20017;-86
2022/01/02 09:04:06;;;;;;;5.13;1.90;;;12.30;99.90;;;;;;6180587;23;20515;-86
2022/01/02 09:06:31;;;;;;;6.13;2.05;;;12.40;99.90;;;;;;6180950;23;20021;-86
2022/01/02 09:08:57;;;;;;;6.13;1.83;;;12.40;99.90;;;;;;6180612;23;20016;-86
2022/01/02 09:11:23;;;;;;;4.90;1.73;;;12.40;99.90;;;;;;6182308;23;20083;-86
2022/01/02 09:13:49;;;;;;;4.65;2.03;;;12.40;99.90;;;;;;6179051;23;20013;-86
2022/01/02 09:16:15;;;;;;;5.65;2.20;;;12.40;99.90;;;;;;6181646;23;20064;-85
2022/01/02 09:18:41;;;;;;;5.43;2.20;;;12.40;99.90;;;;;;6179575;23;20086;-86
2022/01/02 09:21:06;;;;;;;4.93;2.22;;;12.40;99.90;;;;;;6155612;23;20339;-86
2022/01/02 09:23:32;;;;;;;8.80;2.10;;;12.40;99.90;;;;;;6180324;23;20183;-86
2022/01/02 09:25:58;;;;;;;3.97;2.20;;;12.40;99.90;;;;;;6183246;23;20009;-86
2022/01/02 09:28:23;;;;;;;7.05;2.05;;;12.30;99.90;;;;;;6153176;23;20079;-86
2022/01/02 09:30:49;;;;;;;5.85;2.10;;;12.30;99.90;;;;;;6180702;23;20340;-86
2022/01/02 09:33:15;;;;;;;6.25;2.50;;;12.30;99.90;;;;;;6179472;23;20075;-87
2022/01/02 09:35:41;;;;;;;6.63;2.70;;;12.30;99.90;;;;;;6155086;23;20013;-87
2022/01/02 09:38:08;;;;;;;4.32;2.33;;;12.30;99.90;;;;;;6179449;23;20017;-87
2022/01/02 09:40:35;;;;;;;7.28;2.38;;;12.30;99.90;;;;;;6153559;23;20045;-87
2022/01/02 09:43:03;;;;;;;7.20;2.30;;;12.30;99.90;;;;;;6178879;23;20025;-86
2022/01/02 09:45:33;;;;;;;9.05;2.78;;;12.30;99.90;;;;;;6155264;23;20013;-86
2022/01/02 09:48:00;;;;;;;6.43;2.53;;;12.30;99.90;;;;;;6180806;23;20398;-86
2022/01/02 09:50:26;;;;;;;8.60;2.50;;;12.30;99.90;;;;;;6178664;23;20017;-86
2022/01/02 09:52:51;;;;;;;5.82;2.60;;;12.30;99.90;;;;;;6179837;23;20020;-86
2022/01/02 09:55:18;;;;;;;5.90;2.42;;;12.30;99.90;;;;;;6178653;23;20032;-86
2022/01/02 09:57:48;;;;;;;8.15;2.80;;;12.30;99.90;;;;;;6179910;23;20045;-86
2022/01/02 10:00:15;;;;;;;9.48;2.55;;;12.30;99.90;;;;;;6154589;23;20439;-86
2022/01/02 10:03:02;;;;;;;8.30;2.67;;;12.30;99.90;;;;;;6156025;23;20024;-86
2022/01/02 10:05:29;;;;;;;4.88;2.72;;;12.30;99.90;;;;;;6180131;23;20020;-86
2022/01/02 10:07:56;;;;;;;4.53;2.65;;;12.20;99.90;;;;;;6148715;23;20020;-86
2022/01/02 10:10:32;;;;;;;5.57;2.20;;;12.30;99.90;;;;;;6172670;23;20056;-86
2022/01/02 10:13:04;;;;;;;8.10;2.40;;;12.30;99.90;;;;;;6153356;23;20047;-86
2022/01/02 10:15:31;;;;;;;6.40;2.47;;;12.30;99.90;;;;;;6180816;23;20032;-86
2022/01/02 10:18:08;;;;;;;9.30;2.40;;;12.30;99.90;;;;;;6153145;23;20009;-86
2022/01/02 10:20:42;;;;;;;5.82;2.78;;;12.30;99.90;;;;;;6178788;23;20020;-86
2022/01/02 10:23:13;;;;;;;9.02;2.88;;;12.30;99.90;;;;;;6181572;23;20017;-85
2022/01/02 10:25:56;;;;;;;9.00;3.40;;;12.30;99.90;;;;;;6177983;23;20064;-86
2022/01/02 10:28:33;;;;;;;7.25;2.35;;;12.30;99.90;;;;;;6176615;23;20009;-86
2022/01/02 10:31:08;;;;;;;6.55;2.63;;;12.30;99.90;;;;;;6157114;23;20107;-86
2022/01/02 10:33:57;;;;;;;5.47;2.55;;;12.30;99.90;;;;;;6179781;23;20020;-86
2022/01/02 10:36:28;;;;;;;7.90;2.88;;;12.30;99.90;;;;;;6152112;23;20017;-86
2022/01/02 10:39:30;;;;;;;6.40;2.67;;;12.30;99.90;;;;;;6177917;23;20380;-86
2022/01/02 10:41:55;;;;;;;9.77;3.08;;;12.40;99.90;;;;;;6141426;23;20040;-86
2022/01/02 10:44:30;;;;;;;7.28;2.90;;;12.40;99.90;;;;;;6177703;23;20028;-86
2022/01/02 10:47:16;;;;;;;7.10;2.67;;;12.40;99.90;;;;;;6152154;23;20119;-86
2022/01/02 10:50:04;;;;;;;7.00;3.00;;;12.40;99.90;;;;;;6180914;23;20391;-86
2022/01/02 10:52:35;;;;;;;7.07;2.80;;;12.40;99.90;;;;;;6178386;23;20044;-86
2022/01/02 10:55:22;;;;;;;8.02;3.22;;;12.30;99.90;;;;;;6155326;23;20017;-87
2022/01/02 10:57:50;;;;;;;8.95;3.28;;;12.30;99.90;;;;;;6153107;23;20017;-86
2022/01/02 11:00:17;;;;;;;6.38;3.03;;;12.30;99.90;;;;;;6178955;23;20012;-87
2022/01/02 11:02:44;;;;;;;6.35;3.47;;;12.30;99.90;;;;;;6179209;23;20074;-86
2022/01/02 11:05:12;;;;;;;8.98;3.58;;;12.20;99.90;;;;;;6178191;23;20017;-86
2022/01/02 11:07:42;;;;;;;7.57;3.22;;;12.20;99.90;;;;;;6178066;23;20017;-86
2022/01/02 11:10:10;;;;;;;10.50;3.65;;;12.30;99.90;;;;;;6153795;23;20092;-86
2022/01/02 11:12:41;;;;;;;9.48;3.40;;;12.30;99.90;;;;;;6154896;23;20009;-86
2022/01/02 11:15:08;;;;;;;7.22;3.25;;;12.30;99.90;;;;;;6179413;23;20443;-86
2022/01/02 11:17:35;;;;;;;8.20;3.25;;;12.30;99.90;;;;;;6153692;23;20017;-86
2022/01/02 11:20:07;;;;;;;10.60;3.42;;;12.30;99.90;;;;;;6178163;23;20017;-86
2022/01/02 11:23:00;;;;;;;7.93;3.35;;;12.30;99.90;;;;;;6155407;23;20307;-86
2022/01/02 11:25:50;;;;;;;8.85;3.15;;;12.30;99.90;;;;;;6180195;23;20462;-86
2022/01/02 11:28:41;;;;;;;11.02;3.38;;;12.30;99.90;;;;;;6179335;23;20013;-86
2022/01/02 11:31:09;;;;;;;8.32;3.17;;;12.20;99.90;;;;;;6180321;23;20017;-86
2022/01/02 11:33:42;;;;;;;8.15;3.13;;;12.30;99.90;;;;;;6180639;23;20048;-86
2022/01/02 11:36:30;;;;;;;9.43;2.65;;;12.30;99.90;;;;;;6182043;23;20013;-86
2022/01/02 11:39:10;;;;;;;6.68;2.45;;;12.30;99.90;;;;;;6178775;23;20021;-86
2022/01/02 11:41:44;;;;;;;7.50;2.78;;;12.30;99.90;;;;;;6179713;23;20021;-86
2022/01/02 11:44:12;;;;;;;6.00;2.40;;;12.30;99.90;;;;;;6181091;23;20056;-86
2022/01/02 11:46:47;;;;;;;6.70;2.67;;;12.30;99.90;;;;;;6181272;23;20009;-86
2022/01/02 11:49:16;;;;;;;5.35;2.38;;;12.30;99.90;;;;;;6155631;23;20024;-86
2022/01/02 11:51:50;;;;;;;8.82;2.33;;;12.30;99.90;;;;;;6178606;23;20017;-86
2022/01/02 11:54:49;;;;;;;10.75;2.92;;;12.30;99.90;;;;;;6154588;23;20474;-86
2022/01/02 11:57:18;;;;;;;10.02;2.55;;;12.20;99.90;;;;;;6177370;23;20104;-86
2022/01/02 11:59:46;;;;;;;9.18;2.65;;;12.30;99.90;;;;;;6180460;23;20049;-86
2022/01/02 12:02:18;;;;;;;8.38;2.30;;;12.30;99.90;;;;;;6180752;23;20016;-86
2022/01/02 12:05:12;;;;;;;7.45;1.92;;;12.40;99.90;;;;;;6155705;23;20013;-86
2022/01/02 12:07:42;;;;;;;6.07;2.13;;;12.40;99.90;;;;;;6155116;23;20063;-86
2022/01/02 12:10:16;;;;;;;7.00;1.88;;;12.40;99.90;;;;;;6152869;23;20375;-86
2022/01/02 12:12:58;;;;;;;8.25;1.98;;;12.40;99.90;;;;;;6176933;23;20078;-86
2022/01/02 12:15:25;;;;;;;8.25;1.77;;;12.40;99.90;;;;;;6178199;23;20458;-86
2022/01/02 12:18:09;;;;;;;6.05;1.52;;;12.40;99.90;;;;;;6155408;23;20017;-86
2022/01/02 12:21:04;;;;;;;10.32;1.67;;;12.40;99.90;;;;;;6178232;23;20044;-86
2022/01/02 12:23:33;;;;;;;10.00;1.45;;;12.40;99.90;;;;;;6174332;23;20325;-86
2022/01/02 12:26:08;;;;;;;6.85;1.50;;;12.50;99.90;;;;;;6179456;23;20451;-86
2022/01/02 12:28:42;;;;;;;6.70;1.60;;;12.50;99.90;;;;;;6153974;23;20013;-86
2022/01/02 12:31:14;;;;;;;7.80;1.48;;;12.50;99.90;;;;;;6154461;23;20092;-86
2022/01/02 12:33:40;;;;;;;7.07;1.33;;;12.50;99.90;;;;;;6154329;23;20023;-87
2022/01/02 12:36:10;;;;;;;10.05;1.77;;;12.50;99.90;;;;;;6179856;23;20044;-86
2022/01/02 12:38:54;;;;;;;8.35;1.58;;;12.50;99.90;;;;;;6175000;23;20301;-86
2022/01/02 12:41:25;;;;;;;7.18;1.02;;;12.60;99.90;;;;;;6151869;23;20013;-86
2022/01/02 12:44:09;;;;;;;8.95;1.45;;;12.70;99.90;;;;;;6179043;23;20039;-86
2022/01/02 12:46:42;;;;;;;10.07;1.20;;;13.00;99.90;;;;;;6178309;23;20448;-86
2022/01/02 12:49:20;;;;;;;5.13;1.10;;;13.30;99.90;;;;;;6153851;23;20013;-86
2022/01/02 12:51:48;;;;;;;12.85;1.80;;;13.30;99.90;;;;;;6180184;23;20017;-86
2022/01/02 12:54:20;;;;;;;6.93;1.00;;;13.20;99.90;;;;;;6152755;23;20021;-86
2022/01/02 12:56:46;;;;;;;10.93;1.60;;;13.40;99.90;;;;;;6181149;23;20020;-86
2022/01/02 12:59:20;;;;;;;8.68;1.90;;;13.40;99.90;;;;;;6154495;23;20021;-86
2022/01/02 13:01:54;;;;;;;10.68;1.40;;;13.40;99.90;;;;;;6154853;23;20025;-86
2022/01/02 13:04:22;;;;;;;8.70;1.70;;;13.20;99.90;;;;;;6178914;23;20256;-86
2022/01/02 13:06:52;;;;;;;9.10;1.55;;;12.90;99.90;;;;;;6155747;23;20013;-87